Time;durP1;ratioP1;P1;durP2;ratioP2;P2;SDS_P1;SDS_P2;PMS_P1;PMS_P2;Temp;Humidity;BMP_temperature;BMP_pressure;BME280_temperature;BME280_humidity;BME280_pressure;Samples;Min_cycle;Max_cycle;Signal;HPM_P1;HPM_P2
2021/12/30 00:00:20;;;;;;;54.75;8.98;;;;;;;;;;5020929;28;20198;-69
2021/12/30 00:02:45;;;;;;;51.70;7.85;;;;;;;;;;5019926;28;20274;-69
2021/12/30 00:05:11;;;;;;;37.65;6.60;;;;;;;;;;5025285;28;20261;-69
2021/12/30 00:07:36;;;;;;;50.80;7.20;;;;;;;;;;5025401;28;20256;-69
2021/12/30 00:10:03;;;;;;;46.10;7.35;;;;;;;;;;5013469;28;20190;-68
2021/12/30 00:12:29;;;;;;;42.47;8.18;;;;;;;;;;5008128;28;20329;-69
2021/12/30 00:14:54;;;;;;;38.53;6.45;;;;;;;;;;4997978;28;20987;-69
2021/12/30 00:17:20;;;;;;;44.60;8.32;;;;;;;;;;5022896;28;20190;-68
2021/12/30 00:19:45;;;;;;;46.33;7.55;;;;;;;;;;5025707;28;20693;-69
2021/12/30 00:22:10;;;;;;;39.65;7.53;;;;;;;;;;5013744;28;20273;-69
2021/12/30 00:24:36;;;;;;;56.08;7.85;;;;;;;;;;5024472;28;20193;-69
2021/12/30 00:27:01;;;;;;;43.50;7.38;;;;;;;;;;5012777;28;20329;-69
2021/12/30 00:29:27;;;;;;;50.05;7.75;;;;;;;;;;5025923;28;20186;-69
2021/12/30 00:31:52;;;;;;;49.38;7.43;;;;;;;;;;5014310;28;20218;-69
2021/12/30 00:34:18;;;;;;;42.30;6.60;;;;;;;;;;5025688;28;20252;-69
2021/12/30 00:36:43;;;;;;;42.85;8.50;;;;;;;;;;5020048;28;20246;-69
2021/12/30 00:39:10;;;;;;;45.78;6.80;;;;;;;;;;5023606;28;20269;-69
2021/12/30 00:41:35;;;;;;;40.17;6.80;;;;;;;;;;5015803;28;20280;-69
2021/12/30 00:44:01;;;;;;;42.35;6.20;;;;;;;;;;5000648;28;20276;-69
2021/12/30 00:46:27;;;;;;;44.80;6.90;;;;;;;;;;5017734;28;20205;-69
2021/12/30 00:48:52;;;;;;;49.45;7.82;;;;;;;;;;5007784;28;20189;-69
2021/12/30 00:51:17;;;;;;;45.90;7.10;;;;;;;;;;5021132;28;20190;-69
2021/12/30 00:53:43;;;;;;;43.25;6.82;;;;;;;;;;5017622;28;20611;-69
2021/12/30 00:56:08;;;;;;;40.03;6.55;;;;;;;;;;5024063;28;20312;-68
2021/12/30 00:58:34;;;;;;;41.00;6.93;;;;;;;;;;5016557;28;20276;-68
2021/12/30 01:00:59;;;;;;;46.58;7.82;;;;;;;;;;5022030;28;20259;-68
2021/12/30 01:03:25;;;;;;;40.03;6.45;;;;;;;;;;5014795;28;20213;-69
2021/12/30 01:05:51;;;;;;;39.03;5.88;;;;;;;;;;5024622;28;20186;-69
2021/12/30 01:08:17;;;;;;;48.42;7.30;;;;;;;;;;5010498;28;20193;-68
2021/12/30 01:10:44;;;;;;;38.78;6.63;;;;;;;;;;5026181;28;20186;-68
2021/12/30 01:13:16;;;;;;;45.97;6.20;;;;;;;;;;5013843;28;20360;-69
2021/12/30 01:15:59;;;;;;;36.00;6.03;;;;;;;;;;5003142;28;20209;-69
2021/12/30 01:18:38;;;;;;;38.83;6.93;;;;;;;;;;5013184;28;20193;-69
2021/12/30 01:21:07;;;;;;;48.33;7.03;;;;;;;;;;5017318;28;20186;-68
2021/12/30 01:23:32;;;;;;;53.58;6.78;;;;;;;;;;5015190;28;23654;-68
2021/12/30 01:25:57;;;;;;;46.83;6.88;;;;;;;;;;5021955;28;20234;-69
2021/12/30 01:28:25;;;;;;;36.30;6.70;;;;;;;;;;5021239;28;20562;-68
2021/12/30 01:30:51;;;;;;;44.90;8.90;;;;;;;;;;5023206;28;20653;-68
2021/12/30 01:33:17;;;;;;;38.17;7.50;;;;;;;;;;5022629;28;20343;-70
2021/12/30 01:35:43;;;;;;;46.13;7.95;;;;;;;;;;5012129;28;20277;-69
2021/12/30 01:38:12;;;;;;;48.05;7.60;;;;;;;;;;5022537;28;20660;-69
2021/12/30 01:40:40;;;;;;;45.67;8.63;;;;;;;;;;5015534;28;20455;-69
2021/12/30 01:43:06;;;;;;;38.60;7.40;;;;;;;;;;5025012;28;20178;-68
2021/12/30 01:45:32;;;;;;;35.20;8.15;;;;;;;;;;5012119;28;20749;-68
2021/12/30 01:47:58;;;;;;;42.17;9.85;;;;;;;;;;5024775;28;20186;-68
2021/12/30 01:50:25;;;;;;;39.75;8.85;;;;;;;;;;5014394;28;21921;-68
2021/12/30 01:52:51;;;;;;;45.05;9.70;;;;;;;;;;5025986;28;20622;-69
2021/12/30 01:55:18;;;;;;;45.45;9.07;;;;;;;;;;5013628;28;21164;-68
2021/12/30 01:57:46;;;;;;;49.80;10.50;;;;;;;;;;5026155;28;20189;-69
2021/12/30 02:00:14;;;;;;;42.85;9.80;;;;;;;;;;5013269;28;20198;-69
2021/12/30 02:02:40;;;;;;;47.08;10.32;;;;;;;;;;5022746;28;20212;-68
2021/12/30 02:05:06;;;;;;;48.15;11.13;;;;;;;;;;5020779;28;20232;-69
2021/12/30 02:07:32;;;;;;;50.22;11.23;;;;;;;;;;5013702;28;20606;-70
2021/12/30 02:10:01;;;;;;;48.95;10.77;;;;;;;;;;5020089;28;20269;-69
2021/12/30 02:12:30;;;;;;;54.40;11.55;;;;;;;;;;5019205;28;20209;-68
2021/12/30 02:14:55;;;;;;;53.05;11.57;;;;;;;;;;5019295;28;20213;-68
2021/12/30 02:17:21;;;;;;;48.15;10.90;;;;;;;;;;5016400;28;20225;-69
2021/12/30 02:19:46;;;;;;;46.72;11.25;;;;;;;;;;5021383;28;20281;-69
2021/12/30 02:22:11;;;;;;;51.05;11.75;;;;;;;;;;5010134;28;20190;-68
2021/12/30 02:24:45;;;;;;;43.60;12.20;;;;;;;;;;5023594;28;20265;-68
2021/12/30 02:27:10;;;;;;;48.63;12.32;;;;;;;;;;5015502;28;20315;-69
2021/12/30 02:29:35;;;;;;;42.50;12.80;;;;;;;;;;5020558;28;20388;-69
2021/12/30 02:32:01;;;;;;;48.00;13.50;;;;;;;;;;5006366;28;20229;-69
2021/12/30 02:34:26;;;;;;;48.65;13.88;;;;;;;;;;5023637;28;20665;-69
2021/12/30 02:36:52;;;;;;;52.70;13.20;;;;;;;;;;5023426;28;20598;-69
2021/12/30 02:39:20;;;;;;;58.72;14.13;;;;;;;;;;5014788;28;20186;-69
2021/12/30 02:41:45;;;;;;;47.50;13.85;;;;;;;;;;5022237;28;20179;-70
2021/12/30 02:44:10;;;;;;;52.00;14.82;;;;;;;;;;4996603;28;20186;-69
2021/12/30 02:46:39;;;;;;;58.72;15.07;;;;;;;;;;5022373;28;20190;-69
2021/12/30 02:49:05;;;;;;;64.07;15.30;;;;;;;;;;5016467;28;20712;-69
2021/12/30 02:51:30;;;;;;;62.65;17.00;;;;;;;;;;5026140;28;20246;-69
2021/12/30 02:53:56;;;;;;;66.75;16.50;;;;;;;;;;5019574;28;20228;-69
2021/12/30 02:56:22;;;;;;;65.15;16.40;;;;;;;;;;5021827;28;20474;-70
2021/12/30 02:58:48;;;;;;;66.53;19.10;;;;;;;;;;5019885;28;20186;-68
2021/12/30 03:01:17;;;;;;;62.83;18.13;;;;;;;;;;5023797;28;20186;-69
2021/12/30 03:03:43;;;;;;;59.72;16.92;;;;;;;;;;5021684;28;20691;-69
2021/12/30 03:06:11;;;;;;;60.75;17.33;;;;;;;;;;5023596;28;20190;-69
2021/12/30 03:08:37;;;;;;;54.08;17.40;;;;;;;;;;5029093;28;20185;-68
2021/12/30 03:11:04;;;;;;;64.03;18.60;;;;;;;;;;5017094;28;20186;-69
2021/12/30 03:13:31;;;;;;;59.38;17.75;;;;;;;;;;5027556;28;20202;-70
2021/12/30 03:16:03;;;;;;;51.58;18.88;;;;;;;;;;5018188;28;20552;-70
2021/12/30 03:18:33;;;;;;;53.28;17.42;;;;;;;;;;5027415;28;20267;-70
2021/12/30 03:20:59;;;;;;;55.38;18.05;;;;;;;;;;5015375;28;20649;-69
2021/12/30 03:23:25;;;;;;;61.00;19.23;;;;;;;;;;5028731;28;20181;-69
2021/12/30 03:25:50;;;;;;;58.72;17.98;;;;;;;;;;5015550;28;20632;-69
2021/12/30 03:28:16;;;;;;;58.25;18.08;;;;;;;;;;5025833;28;20196;-68
2021/12/30 03:30:41;;;;;;;69.82;19.27;;;;;;;;;;5015699;28;20226;-68
2021/12/30 03:33:07;;;;;;;57.50;19.13;;;;;;;;;;5024852;28;20207;-68
2021/12/30 03:35:32;;;;;;;69.65;18.73;;;;;;;;;;5020960;28;20197;-69
2021/12/30 03:37:58;;;;;;;63.55;20.38;;;;;;;;;;5028061;28;20221;-69
2021/12/30 03:40:23;;;;;;;55.05;18.48;;;;;;;;;;5019444;28;20182;-69
2021/12/30 03:42:49;;;;;;;53.72;17.75;;;;;;;;;;5028932;28;20182;-69
2021/12/30 03:45:15;;;;;;;60.63;18.58;;;;;;;;;;5025358;28;20507;-69
2021/12/30 03:47:44;;;;;;;71.90;20.80;;;;;;;;;;5014939;28;20261;-69
2021/12/30 03:50:23;;;;;;;56.25;17.70;;;;;;;;;;5024621;28;20272;-68
2021/12/30 03:52:52;;;;;;;69.20;20.55;;;;;;;;;;5015435;28;20547;-69
2021/12/30 03:55:19;;;;;;;54.33;19.58;;;;;;;;;;5020009;28;20194;-69
2021/12/30 03:57:45;;;;;;;60.00;19.17;;;;;;;;;;5016074;28;20190;-69
2021/12/30 04:00:12;;;;;;;65.70;20.63;;;;;;;;;;5027039;28;20182;-69
2021/12/30 04:02:38;;;;;;;60.35;19.38;;;;;;;;;;5013766;28;20645;-69
2021/12/30 04:05:04;;;;;;;61.47;19.58;;;;;;;;;;5023942;28;20993;-68
2021/12/30 04:07:30;;;;;;;60.58;19.95;;;;;;;;;;5016029;28;20255;-69
2021/12/30 04:09:55;;;;;;;62.25;20.35;;;;;;;;;;5026918;28;20194;-69
2021/12/30 04:12:21;;;;;;;64.90;20.50;;;;;;;;;;5015710;28;20210;-69
2021/12/30 04:14:46;;;;;;;59.85;20.48;;;;;;;;;;5023036;28;20236;-69
2021/12/30 04:17:12;;;;;;;65.90;19.55;;;;;;;;;;5015124;28;20190;-69
2021/12/30 04:19:37;;;;;;;61.33;18.80;;;;;;;;;;5026662;28;20267;-70
2021/12/30 04:22:03;;;;;;;57.80;19.75;;;;;;;;;;5024831;28;20182;-68
2021/12/30 04:24:28;;;;;;;73.78;20.42;;;;;;;;;;5025661;28;20649;-70
2021/12/30 04:26:54;;;;;;;74.97;20.30;;;;;;;;;;5024353;28;20197;-69
2021/12/30 04:29:20;;;;;;;55.65;19.27;;;;;;;;;;5015960;28;20190;-69
2021/12/30 04:31:46;;;;;;;70.47;21.55;;;;;;;;;;5021486;28;20308;-70
2021/12/30 04:34:12;;;;;;;62.55;19.67;;;;;;;;;;5018972;28;20293;-70
2021/12/30 04:36:38;;;;;;;59.63;19.52;;;;;;;;;;5025429;28;20189;-70
2021/12/30 04:39:04;;;;;;;55.10;20.30;;;;;;;;;;5017160;28;20220;-69
2021/12/30 04:41:29;;;;;;;59.63;19.17;;;;;;;;;;5021755;28;20218;-70
2021/12/30 04:43:55;;;;;;;67.90;21.48;;;;;;;;;;5016317;28;20186;-69
2021/12/30 04:46:20;;;;;;;64.30;20.90;;;;;;;;;;5020609;28;20194;-69
2021/12/30 04:48:45;;;;;;;60.38;18.85;;;;;;;;;;5019258;28;20193;-71
2021/12/30 04:51:11;;;;;;;61.28;19.83;;;;;;;;;;5023111;28;20182;-70
2021/12/30 04:53:37;;;;;;;57.03;19.63;;;;;;;;;;5021728;28;20198;-70
2021/12/30 04:56:02;;;;;;;45.67;18.60;;;;;;;;;;5013340;28;20209;-70
2021/12/30 04:58:28;;;;;;;47.08;18.70;;;;;;;;;;5022005;28;20185;-70
2021/12/30 05:00:53;;;;;;;46.50;16.60;;;;;;;;;;5024976;28;20202;-70
2021/12/30 05:03:21;;;;;;;54.15;17.67;;;;;;;;;;5001420;28;20637;-71
2021/12/30 05:05:49;;;;;;;42.20;16.63;;;;;;;;;;5014585;28;20182;-71
2021/12/30 05:08:19;;;;;;;46.53;17.98;;;;;;;;;;5022632;28;20209;-72
2021/12/30 05:10:44;;;;;;;46.42;17.23;;;;;;;;;;5019821;28;20343;-72
2021/12/30 05:13:11;;;;;;;41.65;16.33;;;;;;;;;;5021660;28;20301;-71
2021/12/30 05:15:37;;;;;;;40.20;16.17;;;;;;;;;;5015092;28;20190;-71
2021/12/30 05:18:04;;;;;;;37.55;15.18;;;;;;;;;;5022368;28;20185;-71
2021/12/30 05:20:30;;;;;;;37.00;15.63;;;;;;;;;;5016560;28;20175;-71
2021/12/30 05:22:55;;;;;;;37.45;17.35;;;;;;;;;;5025952;28;20180;-70
2021/12/30 05:25:21;;;;;;;33.08;16.35;;;;;;;;;;5022994;28;20189;-71
2021/12/30 05:27:48;;;;;;;38.60;17.17;;;;;;;;;;5014978;28;20545;-70
2021/12/30 05:30:15;;;;;;;35.60;17.02;;;;;;;;;;5021692;28;20308;-70
2021/12/30 05:32:41;;;;;;;40.70;17.65;;;;;;;;;;5015545;28;20289;-70
2021/12/30 05:35:09;;;;;;;49.67;20.10;;;;;;;;;;5023647;28;20182;-70
2021/12/30 05:37:34;;;;;;;42.35;18.27;;;;;;;;;;5015987;28;20193;-70
2021/12/30 05:40:00;;;;;;;45.58;19.23;;;;;;;;;;5023135;28;20185;-70
2021/12/30 05:42:26;;;;;;;43.22;19.02;;;;;;;;;;5016965;28;20190;-70
2021/12/30 05:44:52;;;;;;;40.13;18.52;;;;;;;;;;5024133;28;20197;-70
2021/12/30 05:47:18;;;;;;;49.70;20.48;;;;;;;;;;5018609;28;20185;-70
2021/12/30 05:49:43;;;;;;;42.65;17.33;;;;;;;;;;5023386;28;20208;-71
2021/12/30 05:52:09;;;;;;;47.53;19.02;;;;;;;;;;4999781;28;20209;-69
2021/12/30 05:54:34;;;;;;;41.95;19.08;;;;;;;;;;5021391;28;20213;-70
2021/12/30 05:56:59;;;;;;;41.28;18.40;;;;;;;;;;5017269;28;20202;-70
2021/12/30 05:59:25;;;;;;;41.25;17.83;;;;;;;;;;5013719;28;20545;-70
2021/12/30 06:01:50;;;;;;;43.22;17.70;;;;;;;;;;4991411;28;20182;-70
2021/12/30 06:04:15;;;;;;;42.95;18.90;;;;;;;;;;5014647;28;20190;-70
2021/12/30 06:06:41;;;;;;;41.92;18.83;;;;;;;;;;5020694;28;20186;-70
2021/12/30 06:09:06;;;;;;;42.83;18.88;;;;;;;;;;5011481;28;20186;-70
2021/12/30 06:11:31;;;;;;;42.53;17.33;;;;;;;;;;5025780;28;20190;-69
2021/12/30 06:13:57;;;;;;;37.38;17.92;;;;;;;;;;5015111;28;20204;-70
2021/12/30 06:16:22;;;;;;;37.13;17.52;;;;;;;;;;5007915;28;20182;-70
2021/12/30 06:18:47;;;;;;;40.95;17.38;;;;;;;;;;5013568;28;20610;-71
2021/12/30 06:21:13;;;;;;;35.28;15.57;;;;;;;;;;5023657;28;20651;-71
2021/12/30 06:23:38;;;;;;;37.95;17.13;;;;;;;;;;5011137;28;20204;-70
2021/12/30 06:26:03;;;;;;;38.95;16.85;;;;;;;;;;5025637;28;20868;-70
2021/12/30 06:28:29;;;;;;;32.90;14.77;;;;;;;;;;5027429;28;20190;-71
2021/12/30 06:30:54;;;;;;;36.00;15.40;;;;;;;;;;5020096;28;20328;-71
2021/12/30 06:33:19;;;;;;;28.77;13.55;;;;;;;;;;5026891;28;20257;-71
2021/12/30 06:35:45;;;;;;;30.58;13.85;;;;;;;;;;5020065;28;20251;-71
2021/12/30 06:38:10;;;;;;;26.15;13.27;;;;;;;;;;5027015;28;20722;-70
2021/12/30 06:40:36;;;;;;;30.50;12.93;;;;;;;;;;5018788;28;20537;-70
2021/12/30 06:43:01;;;;;;;25.73;11.85;;;;;;;;;;5025375;28;20520;-70
2021/12/30 06:45:26;;;;;;;25.38;11.00;;;;;;;;;;5020405;28;20193;-70
2021/12/30 06:47:52;;;;;;;25.75;10.18;;;;;;;;;;5026506;28;20805;-70
2021/12/30 06:50:20;;;;;;;17.33;8.63;;;;;;;;;;5019136;28;22952;-71
2021/12/30 06:52:48;;;;;;;20.08;9.15;;;;;;;;;;5026014;28;20233;-71
2021/12/30 06:55:15;;;;;;;19.13;8.45;;;;;;;;;;5019642;28;20178;-72
2021/12/30 06:57:41;;;;;;;15.57;7.13;;;;;;;;;;5023953;28;20222;-73
2021/12/30 07:00:09;;;;;;;12.13;6.18;;;;;;;;;;5026426;28;20272;-73
2021/12/30 07:02:35;;;;;;;12.70;5.88;;;;;;;;;;5020256;28;20230;-72
2021/12/30 07:05:01;;;;;;;13.65;5.88;;;;;;;;;;5019332;28;20182;-72
2021/12/30 07:07:26;;;;;;;7.93;4.70;;;;;;;;;;5018837;28;20185;-72
2021/12/30 07:09:52;;;;;;;11.95;4.80;;;;;;;;;;5023485;28;20397;-73
2021/12/30 07:12:17;;;;;;;10.00;4.78;;;;;;;;;;5018452;28;20286;-71
2021/12/30 07:14:43;;;;;;;7.32;3.97;;;;;;;;;;5024801;28;20285;-71
2021/12/30 07:17:08;;;;;;;8.15;4.28;;;;;;;;;;5011613;28;20276;-71
2021/12/30 07:19:34;;;;;;;6.20;3.67;;;;;;;;;;5022154;28;20577;-71
2021/12/30 07:21:59;;;;;;;7.55;4.00;;;;;;;;;;5018424;28;20280;-71
2021/12/30 07:24:24;;;;;;;7.22;4.05;;;;;;;;;;5022265;28;20645;-71
2021/12/30 07:26:51;;;;;;;7.80;4.35;;;;;;;;;;5000683;28;20513;-70
2021/12/30 07:29:17;;;;;;;9.02;4.68;;;;;;;;;;5023286;28;20467;-71
2021/12/30 07:31:42;;;;;;;8.98;5.10;;;;;;;;;;5025470;28;20277;-71
2021/12/30 07:34:08;;;;;;;11.68;4.95;;;;;;;;;;5016853;28;20217;-70
2021/12/30 07:36:33;;;;;;;8.15;4.82;;;;;;;;;;5024704;28;20623;-70
2021/12/30 07:38:58;;;;;;;8.77;4.90;;;;;;;;;;5017446;28;20668;-70
2021/12/30 07:41:24;;;;;;;9.25;4.53;;;;;;;;;;5025225;28;20263;-70
2021/12/30 07:43:49;;;;;;;8.82;5.13;;;;;;;;;;5018290;28;20198;-71
2021/12/30 07:46:15;;;;;;;10.63;5.45;;;;;;;;;;5023811;28;20201;-71
2021/12/30 07:48:40;;;;;;;8.65;5.82;;;;;;;;;;5015194;28;20260;-71
2021/12/30 07:51:06;;;;;;;11.50;6.35;;;;;;;;;;5024714;28;20257;-71
2021/12/30 07:53:31;;;;;;;12.05;7.03;;;;;;;;;;5001994;28;20709;-71
2021/12/30 07:55:57;;;;;;;9.25;6.35;;;;;;;;;;5023970;28;20198;-70
2021/12/30 07:58:22;;;;;;;12.70;7.05;;;;;;;;;;5014473;28;20556;-70
2021/12/30 08:00:48;;;;;;;12.50;7.32;;;;;;;;;;5024133;28;20190;-70
2021/12/30 08:03:13;;;;;;;12.52;8.10;;;;;;;;;;5022179;28;20741;-71
2021/12/30 08:05:39;;;;;;;12.35;7.57;;;;;;;;;;5020308;28;20549;-71
2021/12/30 08:08:04;;;;;;;9.10;7.20;;;;;;;;;;5023051;28;20202;-70
2021/12/30 08:10:30;;;;;;;11.52;7.28;;;;;;;;;;5017877;28;20186;-69
2021/12/30 08:12:55;;;;;;;13.00;6.95;;;;;;;;;;5026790;28;20206;-71
2021/12/30 08:15:23;;;;;;;9.35;6.60;;;;;;;;;;5011391;28;20221;-70
2021/12/30 08:17:49;;;;;;;8.50;6.65;;;;;;;;;;5026443;28;20190;-71
2021/12/30 08:20:16;;;;;;;8.30;5.97;;;;;;;;;;5013005;28;20214;-70
2021/12/30 08:22:43;;;;;;;7.60;5.70;;;;;;;;;;5026375;28;20287;-70
2021/12/30 08:25:10;;;;;;;8.40;5.78;;;;;;;;;;5011033;28;20202;-71
2021/12/30 08:27:36;;;;;;;9.65;5.97;;;;;;;;;;5023712;28;20268;-70
2021/12/30 08:30:04;;;;;;;9.77;6.03;;;;;;;;;;5012400;28;20249;-69
2021/12/30 08:32:29;;;;;;;9.00;6.20;;;;;;;;;;5025177;28;20245;-70
2021/12/30 08:34:54;;;;;;;10.52;5.88;;;;;;;;;;5004223;28;20228;-69
2021/12/30 08:37:20;;;;;;;10.77;5.57;;;;;;;;;;5017622;28;20265;-70
2021/12/30 08:39:45;;;;;;;9.32;5.82;;;;;;;;;;5021158;28;20178;-69
2021/12/30 08:42:19;;;;;;;8.65;5.10;;;;;;;;;;5013542;28;20244;-70
2021/12/30 08:44:46;;;;;;;11.05;5.45;;;;;;;;;;5022057;28;20186;-69
2021/12/30 08:47:11;;;;;;;11.77;5.00;;;;;;;;;;5022752;28;20227;-69
2021/12/30 08:49:36;;;;;;;10.90;5.55;;;;;;;;;;5023451;28;20212;-69
2021/12/30 08:52:02;;;;;;;10.55;5.20;;;;;;;;;;5012890;28;20216;-70
2021/12/30 08:54:29;;;;;;;8.20;4.60;;;;;;;;;;5023216;28;20174;-69
2021/12/30 08:56:55;;;;;;;8.70;4.75;;;;;;;;;;5011036;28;20202;-69
2021/12/30 08:59:20;;;;;;;10.77;5.18;;;;;;;;;;5020036;28;20182;-69
2021/12/30 09:01:45;;;;;;;9.93;4.70;;;;;;;;;;5012446;28;20189;-70
2021/12/30 09:04:11;;;;;;;7.28;4.65;;;;;;;;;;5020187;28;20182;-70
2021/12/30 09:06:36;;;;;;;11.00;5.15;;;;;;;;;;5022339;28;20270;-70
2021/12/30 09:09:02;;;;;;;10.68;5.25;;;;;;;;;;5013801;28;20277;-69
2021/12/30 09:11:27;;;;;;;9.25;6.05;;;;;;;;;;5018904;28;20288;-70
2021/12/30 09:13:52;;;;;;;10.63;6.15;;;;;;;;;;5015488;28;20728;-70
2021/12/30 09:16:18;;;;;;;14.38;6.80;;;;;;;;;;5021411;28;20703;-69
2021/12/30 09:18:43;;;;;;;13.27;7.97;;;;;;;;;;5016910;28;20687;-70
2021/12/30 09:21:09;;;;;;;13.23;7.70;;;;;;;;;;5022781;28;20728;-69
2021/12/30 09:23:34;;;;;;;14.95;8.60;;;;;;;;;;5017496;28;20186;-70
2021/12/30 09:25:59;;;;;;;18.73;8.60;;;;;;;;;;5020164;28;20555;-70
2021/12/30 09:28:25;;;;;;;15.82;8.90;;;;;;;;;;4999733;28;23455;-69
2021/12/30 09:30:50;;;;;;;17.80;8.13;;;;;;;;;;4990598;28;20234;-69
2021/12/30 09:33:16;;;;;;;16.33;9.20;;;;;;;;;;4978442;28;20211;-69
2021/12/30 09:35:47;;;;;;;14.55;8.60;;;;;;;;;;4979343;28;20356;-69
2021/12/30 09:38:12;;;;;;;15.18;8.40;;;;;;;;;;4985240;28;20772;-70
2021/12/30 09:40:38;;;;;;;13.52;8.52;;;;;;;;;;4974336;28;20203;-69
2021/12/30 09:43:04;;;;;;;14.98;8.40;;;;;;;;;;4985208;28;20176;-69
2021/12/30 09:45:36;;;;;;;16.60;9.32;;;;;;;;;;4971064;28;20438;-69
2021/12/30 09:48:06;;;;;;;14.70;8.52;;;;;;;;;;4983149;28;20257;-69
2021/12/30 09:50:36;;;;;;;14.85;8.57;;;;;;;;;;4975801;28;20184;-69
2021/12/30 09:53:02;;;;;;;17.13;8.13;;;;;;;;;;4982581;28;20219;-69
2021/12/30 09:55:28;;;;;;;18.00;7.57;;;;;;;;;;4974476;28;20175;-68
2021/12/30 09:57:53;;;;;;;14.10;7.50;;;;;;;;;;4984411;28;21644;-69
2021/12/30 10:00:19;;;;;;;15.32;7.55;;;;;;;;;;4981466;28;20190;-69
2021/12/30 10:02:45;;;;;;;12.85;7.25;;;;;;;;;;4982830;28;20587;-69
2021/12/30 10:05:14;;;;;;;16.48;7.95;;;;;;;;;;4973657;28;20214;-68
2021/12/30 10:07:41;;;;;;;17.50;7.90;;;;;;;;;;4982337;28;20187;-69
2021/12/30 10:10:26;;;;;;;18.38;7.38;;;;;;;;;;4974638;28;20534;-69
2021/12/30 10:12:51;;;;;;;13.95;6.35;;;;;;;;;;4980386;28;20238;-70
2021/12/30 10:15:16;;;;;;;13.18;5.30;;;;;;;;;;4979273;28;20749;-69
2021/12/30 10:17:42;;;;;;;14.82;5.25;;;;;;;;;;4974406;28;20234;-69
2021/12/30 10:20:18;;;;;;;20.73;5.70;;;;;;;;;;4982171;28;20206;-69
2021/12/30 10:22:46;;;;;;;12.45;4.80;;;;;;;;;;4971158;28;20530;-69
2021/12/30 10:25:31;;;;;;;13.35;5.32;;;;;;;;;;4978745;28;20191;-70
2021/12/30 10:28:19;;;;;;;12.23;4.72;;;;;;;;;;4968681;28;20289;-69
2021/12/30 10:30:45;;;;;;;22.88;12.25;;;;;;;;;;4994161;28;20230;-69
2021/12/30 10:33:20;;;;;;;15.57;4.88;;;;;;;;;;5015295;28;20210;-69
2021/12/30 10:35:46;;;;;;;19.63;10.30;;;;;;;;;;5023897;28;20189;-68
2021/12/30 10:38:12;;;;;;;18.92;6.05;;;;;;;;;;5013081;28;20208;-69
2021/12/30 10:40:42;;;;;;;12.27;6.47;;;;;;;;;;5018244;28;20213;-69
2021/12/30 10:43:27;;;;;;;17.63;6.13;;;;;;;;;;4995461;28;20641;-69
2021/12/30 10:46:11;;;;;;;14.95;5.38;;;;;;;;;;5019087;28;20226;-69
2021/12/30 10:48:46;;;;;;;14.73;5.55;;;;;;;;;;5015846;28;20185;-69
2021/12/30 10:51:15;;;;;;;12.77;5.18;;;;;;;;;;5019115;28;20257;-68
2021/12/30 10:53:41;;;;;;;10.25;5.20;;;;;;;;;;5015680;28;20210;-68
2021/12/30 10:56:28;;;;;;;15.98;6.45;;;;;;;;;;5020082;28;20225;-68
2021/12/30 10:59:07;;;;;;;12.35;5.97;;;;;;;;;;5012866;28;20201;-69
2021/12/30 11:01:37;;;;;;;12.02;5.50;;;;;;;;;;5022700;28;20182;-68
2021/12/30 11:04:03;;;;;;;13.05;6.47;;;;;;;;;;5015512;28;20283;-69
2021/12/30 11:06:28;;;;;;;16.52;5.60;;;;;;;;;;5020946;28;20670;-70
2021/12/30 11:09:23;;;;;;;12.82;5.97;;;;;;;;;;5009866;28;20285;-70
2021/12/30 11:11:58;;;;;;;12.30;5.72;;;;;;;;;;5008450;28;20226;-69
2021/12/30 11:14:26;;;;;;;13.57;6.20;;;;;;;;;;5009922;28;20193;-68
2021/12/30 11:16:58;;;;;;;11.98;6.40;;;;;;;;;;5025799;28;20261;-68
2021/12/30 11:19:23;;;;;;;16.42;6.75;;;;;;;;;;5014488;28;20617;-69
2021/12/30 11:21:51;;;;;;;14.27;5.97;;;;;;;;;;5025471;28;20186;-69
2021/12/30 11:24:17;;;;;;;21.27;6.10;;;;;;;;;;5016336;28;20743;-69
2021/12/30 11:26:43;;;;;;;14.00;6.07;;;;;;;;;;5027898;28;20186;-68
2021/12/30 11:29:08;;;;;;;12.90;5.80;;;;;;;;;;5019082;28;20722;-69
2021/12/30 11:31:34;;;;;;;12.25;4.75;;;;;;;;;;5023436;28;20667;-68
2021/12/30 11:34:01;;;;;;;17.85;5.38;;;;;;;;;;5017926;28;20513;-68
2021/12/30 11:36:29;;;;;;;12.32;5.38;;;;;;;;;;5019935;28;20202;-69
2021/12/30 11:39:00;;;;;;;14.07;4.93;;;;;;;;;;5022930;28;20257;-67
2021/12/30 11:41:28;;;;;;;10.75;4.63;;;;;;;;;;5013297;28;20194;-68
2021/12/30 11:43:55;;;;;;;12.35;4.38;;;;;;;;;;5023262;28;20190;-68
2021/12/30 11:46:39;;;;;;;13.88;4.70;;;;;;;;;;5019046;28;20186;-69
2021/12/30 11:49:06;;;;;;;13.75;4.18;;;;;;;;;;5024987;28;20182;-69
2021/12/30 11:51:52;;;;;;;14.65;4.95;;;;;;;;;;5017290;28;20181;-69
2021/12/30 11:54:38;;;;;;;16.75;4.30;;;;;;;;;;5026449;28;20567;-69
2021/12/30 11:57:22;;;;;;;13.68;4.10;;;;;;;;;;5011405;28;20193;-68
2021/12/30 11:59:48;;;;;;;14.00;4.68;;;;;;;;;;5027211;28;20204;-68
2021/12/30 12:02:37;;;;;;;15.50;4.55;;;;;;;;;;5013001;28;20645;-68
2021/12/30 12:05:39;;;;;;;17.33;4.60;;;;;;;;;;5022140;28;20781;-68
2021/12/30 12:08:07;;;;;;;13.88;5.82;;;;;;;;;;4318456;28;10000873;-69
2021/12/30 12:10:32;;;;;;;10.48;3.70;;;;;;;;;;5017694;28;20251;-68
2021/12/30 12:12:57;;;;;;;13.30;4.05;;;;;;;;;;4996692;28;20201;-68
2021/12/30 12:15:23;;;;;;;13.75;4.38;;;;;;;;;;5018930;28;20204;-69
2021/12/30 12:17:48;;;;;;;12.63;3.90;;;;;;;;;;5020747;28;20665;-69
2021/12/30 12:20:19;;;;;;;14.75;3.95;;;;;;;;;;5018967;28;20339;-69
2021/12/30 12:22:44;;;;;;;11.80;4.25;;;;;;;;;;5014322;28;20178;-69
2021/12/30 12:25:14;;;;;;;12.90;4.10;;;;;;;;;;5017211;28;20589;-70
2021/12/30 12:27:51;;;;;;;13.38;5.07;;;;;;;;;;5017268;28;20194;-69
2021/12/30 12:30:36;;;;;;;10.95;4.18;;;;;;;;;;5019919;28;20291;-69
2021/12/30 12:33:25;;;;;;;11.68;4.28;;;;;;;;;;5002468;28;20205;-69
2021/12/30 12:35:51;;;;;;;19.45;5.00;;;;;;;;;;5023052;28;20217;-69
2021/12/30 12:38:38;;;;;;;17.67;4.75;;;;;;;;;;5014744;28;20232;-69
2021/12/30 12:41:36;;;;;;;16.88;4.97;;;;;;;;;;5006018;28;20197;-68
2021/12/30 12:44:05;;;;;;;13.15;5.10;;;;;;;;;;5010701;28;20703;-68
2021/12/30 12:46:44;;;;;;;13.65;5.30;;;;;;;;;;5024712;28;20586;-68
2021/12/30 12:49:10;;;;;;;13.50;5.93;;;;;;;;;;5011931;28;20190;-68
2021/12/30 12:51:48;;;;;;;14.88;5.80;;;;;;;;;;5023508;28;20522;-69
2021/12/30 12:54:14;;;;;;;18.13;6.47;;;;;;;;;;5014410;28;20568;-68
2021/12/30 12:56:39;;;;;;;15.88;5.93;;;;;;;;;;5018529;28;20196;-69
2021/12/30 12:59:13;;;;;;;13.75;6.47;;;;;;;;;;5018757;28;20671;-69
2021/12/30 13:01:41;;;;;;;14.60;6.93;;;;;;;;;;5021574;28;20692;-68
2021/12/30 13:04:07;;;;;;;13.20;6.40;;;;;;;;;;5008976;28;20186;-68
2021/12/30 13:06:51;;;;;;;15.13;7.18;;;;;;;;;;5015546;28;20182;-68
2021/12/30 13:09:20;;;;;;;14.20;6.60;;;;;;;;;;5016940;28;20196;-69
2021/12/30 13:11:49;;;;;;;19.50;7.25;;;;;;;;;;5019872;28;20245;-69
2021/12/30 13:14:16;;;;;;;17.70;6.75;;;;;;;;;;5015783;28;20637;-69
2021/12/30 13:16:43;;;;;;;17.13;6.53;;;;;;;;;;5017440;28;20199;-68
2021/12/30 13:19:10;;;;;;;13.05;8.18;;;;;;;;;;5022051;28;20210;-68
2021/12/30 13:22:00;;;;;;;16.88;7.15;;;;;;;;;;5012174;28;20271;-68
2021/12/30 13:24:25;;;;;;;16.25;6.53;;;;;;;;;;5022425;28;20653;-68
2021/12/30 13:26:51;;;;;;;17.88;6.72;;;;;;;;;;5013639;28;20289;-69
2021/12/30 13:29:50;;;;;;;17.48;7.25;;;;;;;;;;5022312;28;20194;-69
2021/12/30 13:32:25;;;;;;;18.52;7.10;;;;;;;;;;5007132;28;20214;-69
2021/12/30 13:35:28;;;;;;;12.68;7.47;;;;;;;;;;5014515;28;20277;-69
2021/12/30 13:38:08;;;;;;;17.73;7.95;;;;;;;;;;5007762;28;20289;-69
2021/12/30 13:40:40;;;;;;;15.82;6.65;;;;;;;;;;5013767;28;20551;-69
2021/12/30 13:43:13;;;;;;;15.13;6.95;;;;;;;;;;5022325;28;20182;-69
2021/12/30 13:45:46;;;;;;;15.95;7.30;;;;;;;;;;5018373;28;20178;-69
2021/12/30 13:48:14;;;;;;;16.70;6.88;;;;;;;;;;5016210;28;20603;-69
2021/12/30 13:50:43;;;;;;;16.70;6.47;;;;;;;;;;5020116;28;20724;-69
2021/12/30 13:53:12;;;;;;;13.98;7.30;;;;;;;;;;5017958;28;20521;-68
2021/12/30 13:55:46;;;;;;;17.05;6.97;;;;;;;;;;5022217;28;20233;-67
2021/12/30 13:58:16;;;;;;;12.25;7.18;;;;;;;;;;5014454;28;20684;-68
2021/12/30 14:00:46;;;;;;;15.70;6.55;;;;;;;;;;5024563;28;20684;-67
2021/12/30 14:03:17;;;;;;;16.70;6.35;;;;;;;;;;5012001;28;20744;-69
2021/12/30 14:05:48;;;;;;;13.18;6.68;;;;;;;;;;5023952;28;20174;-68
2021/12/30 14:08:24;;;;;;;11.63;6.18;;;;;;;;;;4994605;28;20194;-69
2021/12/30 14:11:00;;;;;;;12.40;6.45;;;;;;;;;;5023699;28;20181;-69
2021/12/30 14:13:43;;;;;;;10.75;6.00;;;;;;;;;;5012017;28;20209;-69
2021/12/30 14:16:19;;;;;;;12.25;7.18;;;;;;;;;;5024371;28;20403;-68
2021/12/30 14:18:45;;;;;;;12.93;7.30;;;;;;;;;;5013968;28;20239;-68
2021/12/30 14:21:10;;;;;;;16.00;7.95;;;;;;;;;;5022096;28;20195;-68
2021/12/30 14:23:39;;;;;;;13.50;6.90;;;;;;;;;;5020187;28;20178;-68
2021/12/30 14:26:30;;;;;;;12.35;6.68;;;;;;;;;;5018631;28;20193;-69
2021/12/30 14:29:02;;;;;;;13.93;6.93;;;;;;;;;;5009936;28;20515;-69
2021/12/30 14:31:41;;;;;;;18.00;7.18;;;;;;;;;;5022172;28;20229;-68